createdAt,value
2018-03-24T00:00:35.959Z,10.30
2018-03-24T00:03:03.430Z,10.67
2018-03-24T00:05:30.907Z,10.80
2018-03-24T00:07:58.362Z,10.57
2018-03-24T00:10:25.838Z,10.60
2018-03-24T00:12:53.299Z,9.53
2018-03-24T00:15:20.854Z,10.57
2018-03-24T00:17:48.312Z,10.53
2018-03-24T00:20:15.795Z,10.17
2018-03-24T00:22:43.247Z,10.37
2018-03-24T00:25:10.726Z,10.10
2018-03-24T00:27:38.178Z,10.73
2018-03-24T00:30:05.655Z,9.77
2018-03-24T00:32:33.111Z,10.33
2018-03-24T00:35:00.602Z,11.40
2018-03-24T00:37:28.066Z,10.03
2018-03-24T00:39:55.524Z,10.40
2018-03-24T00:42:23.005Z,10.33
2018-03-24T00:44:50.460Z,10.53
2018-03-24T00:47:17.949Z,10.30
2018-03-24T00:49:45.408Z,10.47
2018-03-24T00:52:12.886Z,10.20
2018-03-24T00:54:40.363Z,10.77
2018-03-24T00:57:07.851Z,10.50
2018-03-24T00:59:35.321Z,9.37
2018-03-24T01:02:02.804Z,11.03
2018-03-24T01:04:30.264Z,11.07
2018-03-24T01:06:57.742Z,10.53
2018-03-24T01:09:25.200Z,10.00
2018-03-24T01:11:52.674Z,10.60
2018-03-24T01:14:20.134Z,10.87
2018-03-24T01:16:47.607Z,10.93
2018-03-24T01:19:15.067Z,10.73
2018-03-24T01:21:42.543Z,11.37
2018-03-24T01:24:10.014Z,10.93
2018-03-24T01:26:37.492Z,10.80
2018-03-24T01:29:04.947Z,11.43
2018-03-24T01:31:32.435Z,11.77
2018-03-24T01:33:59.895Z,10.43
2018-03-24T01:36:27.375Z,11.77
2018-03-24T01:38:54.839Z,12.37
2018-03-24T01:41:22.319Z,11.80
2018-03-24T01:43:49.783Z,11.83
2018-03-24T01:46:17.269Z,11.67
2018-03-24T01:48:44.744Z,12.37
2018-03-24T01:51:12.235Z,12.23
2018-03-24T01:53:51.507Z,11.20
2018-03-24T01:56:18.991Z,11.23
2018-03-24T01:58:46.456Z,11.53
2018-03-24T02:01:13.927Z,11.80
2018-03-24T02:03:41.392Z,11.80
2018-03-24T02:06:08.872Z,11.77
2018-03-24T02:08:36.346Z,11.77
2018-03-24T02:11:03.803Z,13.10
2018-03-24T02:13:31.277Z,13.13
2018-03-24T02:15:58.739Z,12.40
2018-03-24T02:18:26.226Z,12.20
2018-03-24T02:20:53.683Z,12.47
2018-03-24T02:23:21.150Z,12.77
2018-03-24T02:25:48.619Z,12.73
2018-03-24T02:28:16.094Z,12.67
2018-03-24T02:30:43.552Z,13.83
2018-03-24T02:33:11.084Z,15.00
2018-03-24T02:35:38.618Z,16.60
2018-03-24T02:38:06.097Z,16.23
2018-03-24T02:40:33.608Z,15.03
2018-03-24T02:43:01.085Z,16.30
2018-03-24T02:45:28.555Z,16.67
2018-03-24T02:47:56.032Z,18.13
2018-03-24T02:50:23.504Z,17.63
2018-03-24T02:52:50.991Z,17.60
2018-03-24T02:55:18.456Z,18.60
2018-03-24T02:57:45.930Z,18.47
2018-03-24T03:00:13.388Z,16.63
2018-03-24T03:02:40.863Z,16.77
2018-03-24T03:05:08.323Z,16.87
2018-03-24T03:07:35.808Z,16.37
2018-03-24T03:10:03.273Z,16.57
2018-03-24T03:12:30.757Z,16.17
2018-03-24T03:14:58.220Z,15.50
2018-03-24T03:17:25.703Z,15.40
2018-03-24T03:19:53.175Z,15.90
2018-03-24T03:22:20.664Z,15.10
2018-03-24T03:24:48.127Z,14.97
2018-03-24T03:27:15.619Z,19.98
2018-03-24T03:29:43.084Z,15.40
2018-03-24T03:32:16.015Z,14.83
2018-03-24T03:34:43.478Z,14.13
2018-03-24T03:37:10.955Z,15.33
2018-03-24T03:39:38.496Z,15.37
2018-03-24T03:42:05.943Z,15.00
2018-03-24T03:44:33.414Z,14.20
2018-03-24T03:47:00.875Z,14.40
2018-03-24T03:49:28.350Z,13.60
2018-03-24T03:51:55.811Z,14.70
2018-03-24T03:54:23.292Z,14.27
2018-03-24T03:56:50.748Z,15.20
2018-03-24T03:59:18.240Z,14.47
2018-03-24T04:01:45.707Z,15.40
2018-03-24T04:04:13.183Z,14.00
2018-03-24T04:06:40.642Z,15.43
2018-03-24T04:09:08.119Z,14.87
2018-03-24T04:11:35.578Z,15.60
2018-03-24T04:14:03.058Z,14.87
2018-03-24T04:16:30.519Z,15.07
2018-03-24T04:18:58.009Z,15.57
2018-03-24T04:21:25.486Z,16.97
2018-03-24T04:23:52.972Z,16.63
2018-03-24T04:26:20.426Z,15.53
2018-03-24T04:28:47.920Z,15.87
2018-03-24T04:31:15.383Z,17.07
2018-03-24T04:33:42.870Z,16.87
2018-03-24T04:36:10.333Z,16.80
2018-03-24T04:38:37.820Z,15.27
2018-03-24T04:41:05.275Z,16.40
2018-03-24T04:43:32.810Z,16.77
2018-03-24T04:46:00.275Z,16.77
2018-03-24T04:48:27.759Z,15.97
2018-03-24T04:50:55.228Z,15.70
2018-03-24T04:53:22.711Z,15.83
2018-03-24T04:55:50.183Z,16.03
2018-03-24T04:58:17.651Z,15.53
2018-03-24T05:00:45.122Z,16.70
2018-03-24T05:03:12.583Z,17.13
2018-03-24T05:05:40.071Z,18.27
2018-03-24T05:08:07.543Z,17.53
2018-03-24T05:10:35.019Z,17.97
2018-03-24T05:13:02.480Z,16.57
2018-03-24T05:15:29.967Z,17.37
2018-03-24T05:17:57.424Z,16.90
2018-03-24T05:20:24.915Z,16.73
2018-03-24T05:22:52.390Z,16.53
2018-03-24T05:25:19.863Z,17.10
2018-03-24T05:27:47.324Z,17.37
2018-03-24T05:30:14.804Z,16.40
2018-03-24T05:32:42.259Z,15.13
2018-03-24T05:35:09.739Z,16.13
2018-03-24T05:37:37.199Z,16.83
2018-03-24T05:40:04.693Z,18.13
2018-03-24T05:42:32.147Z,17.33
2018-03-24T05:44:59.627Z,18.03
2018-03-24T05:47:27.084Z,18.00
2018-03-24T05:49:54.559Z,15.93
2018-03-24T05:52:22.015Z,17.90
2018-03-24T05:54:49.491Z,16.60
2018-03-24T05:57:16.955Z,17.47
2018-03-24T05:59:44.435Z,18.77
2018-03-24T06:02:11.896Z,19.13
2018-03-24T06:04:39.375Z,18.17
2018-03-24T06:07:06.891Z,18.57
2018-03-24T06:09:34.332Z,19.30
2018-03-24T06:12:01.792Z,19.47
2018-03-24T06:14:29.277Z,18.97
2018-03-24T06:16:56.734Z,19.60
2018-03-24T06:19:24.235Z,21.60
2018-03-24T06:21:51.701Z,19.93
2018-03-24T06:24:19.169Z,21.47
2018-03-24T06:26:46.646Z,19.37
2018-03-24T06:29:14.116Z,19.90
2018-03-24T06:31:42.519Z,20.23
2018-03-24T06:34:09.983Z,20.83
2018-03-24T06:36:37.792Z,19.83
2018-03-24T06:39:05.252Z,19.77
2018-03-24T06:41:32.736Z,20.53
2018-03-24T06:44:00.195Z,19.87
2018-03-24T06:46:27.686Z,21.60
2018-03-24T06:48:55.147Z,20.23
2018-03-24T06:51:22.631Z,19.83
2018-03-24T06:53:50.088Z,19.80
2018-03-24T06:56:17.560Z,19.93
2018-03-24T06:58:45.019Z,20.17
2018-03-24T07:01:12.491Z,20.63
2018-03-24T07:03:39.950Z,20.33
2018-03-24T07:06:07.427Z,20.67
2018-03-24T07:08:34.944Z,19.77
2018-03-24T07:11:02.455Z,22.70
2018-03-24T07:13:29.922Z,21.70
2018-03-24T07:15:57.407Z,19.97
2018-03-24T07:18:24.880Z,20.33
2018-03-24T07:20:52.363Z,18.77
2018-03-24T07:23:19.823Z,20.40
2018-03-24T07:25:47.304Z,19.60
2018-03-24T07:28:14.768Z,19.90
2018-03-24T07:30:42.243Z,20.43
2018-03-24T07:33:09.699Z,19.77
2018-03-24T07:35:37.185Z,20.37
2018-03-24T07:38:04.657Z,22.03
2018-03-24T07:40:32.135Z,19.67
2018-03-24T07:42:59.587Z,19.83
2018-03-24T07:45:27.097Z,22.23
2018-03-24T07:47:54.551Z,21.17
2018-03-24T07:50:22.015Z,20.93
2018-03-24T07:52:49.503Z,22.07
2018-03-24T07:55:16.959Z,21.87
2018-03-24T07:57:44.439Z,23.37
2018-03-24T08:00:11.909Z,21.93
2018-03-24T08:02:39.402Z,22.23
2018-03-24T08:05:06.864Z,21.90
2018-03-24T08:07:34.341Z,23.30
2018-03-24T08:10:01.797Z,23.97
2018-03-24T08:12:29.279Z,24.63
2018-03-24T08:14:56.743Z,24.37
2018-03-24T08:17:24.219Z,26.00
2018-03-24T08:19:51.678Z,24.77
2018-03-24T08:22:19.151Z,23.60
2018-03-24T08:24:46.635Z,25.27
2018-03-24T08:27:14.122Z,22.63
2018-03-24T08:29:41.579Z,22.87
2018-03-24T08:32:09.064Z,23.17
2018-03-24T08:34:36.532Z,22.37
2018-03-24T08:37:04.009Z,22.83
2018-03-24T08:39:31.475Z,22.53
2018-03-24T08:41:58.957Z,23.07
2018-03-24T08:44:27.128Z,21.87
2018-03-24T08:46:54.607Z,20.47
2018-03-24T08:49:22.084Z,21.77
2018-03-24T08:51:49.568Z,22.73
2018-03-24T08:54:17.032Z,23.03
2018-03-24T08:56:44.543Z,23.47
2018-03-24T08:59:12.020Z,22.40
2018-03-24T09:01:39.511Z,21.47
2018-03-24T09:04:06.973Z,21.63
2018-03-24T09:06:34.447Z,22.03
2018-03-24T09:09:01.899Z,22.63
2018-03-24T09:11:29.379Z,21.87
2018-03-24T09:13:56.839Z,22.47
2018-03-24T09:16:24.302Z,22.80
2018-03-24T09:18:51.790Z,20.27
2018-03-24T09:21:19.251Z,20.83
2018-03-24T09:23:46.733Z,18.30
2018-03-24T09:26:14.203Z,19.13
2018-03-24T09:28:41.701Z,20.20
2018-03-24T09:31:09.167Z,20.67
2018-03-24T09:33:37.482Z,20.23
2018-03-24T09:36:04.943Z,20.33
2018-03-24T09:38:32.454Z,20.73
2018-03-24T09:40:59.916Z,20.40
2018-03-24T09:43:27.425Z,20.57
2018-03-24T09:45:54.889Z,20.20
2018-03-24T09:48:22.403Z,20.73
2018-03-24T09:50:49.872Z,19.43
2018-03-24T09:53:17.371Z,19.87
2018-03-24T09:55:44.850Z,18.57
2018-03-24T09:58:12.342Z,19.43
2018-03-24T10:00:39.815Z,19.00
2018-03-24T10:03:07.303Z,18.97
2018-03-24T10:05:34.764Z,18.80
2018-03-24T10:08:02.257Z,19.73
2018-03-24T10:10:29.716Z,18.97
2018-03-24T10:12:57.484Z,20.03
2018-03-24T10:15:24.958Z,19.20
2018-03-24T10:17:52.446Z,20.30
2018-03-24T10:20:19.932Z,20.10
2018-03-24T10:25:54.007Z,18.93
2018-03-24T10:28:21.500Z,19.07
2018-03-24T10:30:48.967Z,18.20
2018-03-24T10:33:16.563Z,18.23
2018-03-24T10:35:44.031Z,18.70
2018-03-24T10:38:11.535Z,18.33
2018-03-24T10:40:39.013Z,17.50
2018-03-24T10:43:11.859Z,18.10
2018-03-24T10:45:39.350Z,16.43
2018-03-24T10:48:07.393Z,18.67
2018-03-24T10:50:34.874Z,17.53
2018-03-24T10:53:02.336Z,16.67
2018-03-24T10:55:29.828Z,15.77
2018-03-24T10:57:57.296Z,15.37
2018-03-24T11:00:35.339Z,14.67
2018-03-24T11:03:02.828Z,16.20
2018-03-24T11:05:30.317Z,15.93
2018-03-24T11:07:57.793Z,15.67
2018-03-24T11:10:25.286Z,15.00
2018-03-24T11:12:52.751Z,15.03
2018-03-24T11:15:20.230Z,16.33
2018-03-24T11:17:47.708Z,15.23
2018-03-24T11:20:15.194Z,14.47
2018-03-24T11:22:42.663Z,14.47
2018-03-24T11:25:10.143Z,15.20
2018-03-24T11:27:37.607Z,14.13
2018-03-24T11:30:05.092Z,14.83
2018-03-24T11:32:32.568Z,14.90
2018-03-24T11:35:00.052Z,16.07
2018-03-24T11:37:27.519Z,14.93
2018-03-24T11:39:55.003Z,15.07
2018-03-24T11:42:22.481Z,14.40
2018-03-24T11:44:49.973Z,15.37
2018-03-24T11:47:17.432Z,15.43
2018-03-24T11:49:44.958Z,15.07
2018-03-24T11:52:12.451Z,13.83
2018-03-24T11:54:44.403Z,12.83
2018-03-24T11:57:11.868Z,13.70
2018-03-24T11:59:39.360Z,13.80
2018-03-24T12:02:06.823Z,13.40
2018-03-24T12:04:34.332Z,12.80
2018-03-24T12:07:01.801Z,13.23
2018-03-24T12:09:29.272Z,13.17
2018-03-24T12:11:56.755Z,13.57
2018-03-24T12:14:24.223Z,11.83
2018-03-24T12:16:51.710Z,11.97
2018-03-24T12:19:20.167Z,12.23
2018-03-24T12:21:47.650Z,12.40
2018-03-24T12:24:15.118Z,12.20
2018-03-24T12:26:42.613Z,11.37
2018-03-24T12:29:10.124Z,12.13
2018-03-24T12:31:37.655Z,12.00
2018-03-24T12:34:05.115Z,10.43
2018-03-24T12:36:32.665Z,11.97
2018-03-24T12:39:00.132Z,11.20
2018-03-24T12:41:27.656Z,10.37
2018-03-24T12:43:56.759Z,10.23
2018-03-24T12:46:24.239Z,9.67
2018-03-24T12:48:51.707Z,11.30
2018-03-24T12:51:19.195Z,11.03
2018-03-24T12:53:46.667Z,10.30
2018-03-24T12:56:14.152Z,10.67
2018-03-24T12:58:41.603Z,9.77
2018-03-24T13:01:09.085Z,10.43
2018-03-24T13:03:36.539Z,9.80
2018-03-24T13:06:04.011Z,9.87
2018-03-24T13:08:31.467Z,8.77
2018-03-24T13:10:58.959Z,9.97
2018-03-24T13:13:33.821Z,10.50
2018-03-24T13:16:01.303Z,10.97
2018-03-24T13:18:28.763Z,10.33
2018-03-24T13:20:56.243Z,9.77
2018-03-24T13:23:23.700Z,10.07
2018-03-24T13:25:51.566Z,8.13
2018-03-24T13:28:19.020Z,8.10
2018-03-24T13:30:46.499Z,8.20
2018-03-24T13:33:13.955Z,10.27
2018-03-24T13:35:41.419Z,10.90
2018-03-24T13:38:08.894Z,9.80
2018-03-24T13:40:36.360Z,10.00
2018-03-24T13:43:03.841Z,10.63
2018-03-24T13:45:31.311Z,10.67
2018-03-24T13:47:58.789Z,9.87
2018-03-24T13:50:26.247Z,10.53
2018-03-24T13:52:53.736Z,11.03
2018-03-24T13:55:21.199Z,11.67
2018-03-24T13:57:48.690Z,11.40
2018-03-24T14:00:16.151Z,11.90
2018-03-24T14:02:43.636Z,11.47
2018-03-24T14:05:11.099Z,11.87
2018-03-24T14:07:38.579Z,12.07
2018-03-24T14:10:06.072Z,12.10
2018-03-24T14:12:33.555Z,12.03
2018-03-24T14:15:01.018Z,12.27
2018-03-24T14:17:28.511Z,11.73
2018-03-24T14:19:55.968Z,10.67
2018-03-24T14:22:23.453Z,10.67
2018-03-24T14:24:50.927Z,11.20
2018-03-24T14:27:18.421Z,12.00
2018-03-24T14:29:45.883Z,11.63
2018-03-24T14:32:13.367Z,11.20
2018-03-24T14:34:40.835Z,10.97
2018-03-24T14:37:08.325Z,11.43
2018-03-24T14:39:35.791Z,11.53
2018-03-24T14:42:03.285Z,11.80
2018-03-24T14:44:30.751Z,10.83
2018-03-24T14:46:58.239Z,11.90
2018-03-24T14:49:30.481Z,10.83
2018-03-24T14:51:57.967Z,10.60
2018-03-24T14:54:25.452Z,11.03
2018-03-24T14:56:52.928Z,11.03
2018-03-24T14:59:20.403Z,11.37
2018-03-24T15:01:47.873Z,10.57
2018-03-24T15:04:15.363Z,11.20
2018-03-24T15:06:42.823Z,11.40
2018-03-24T15:09:10.307Z,11.50
2018-03-24T15:11:37.775Z,10.83
2018-03-24T15:14:05.262Z,10.90
2018-03-24T15:16:32.723Z,11.53
2018-03-24T15:19:00.206Z,11.37
2018-03-24T15:21:27.677Z,10.67
2018-03-24T15:23:55.783Z,11.03
2018-03-24T15:26:23.253Z,11.87
2018-03-24T15:32:01.341Z,10.90
2018-03-24T15:34:40.519Z,10.60
2018-03-24T15:37:07.981Z,10.90
2018-03-24T15:39:35.460Z,10.73
2018-03-24T15:42:02.946Z,10.50
2018-03-24T15:44:30.428Z,10.23
2018-03-24T15:46:57.891Z,10.60
2018-03-24T15:49:25.379Z,10.30
2018-03-24T15:51:52.843Z,10.63
2018-03-24T15:54:20.332Z,9.93
2018-03-24T15:56:47.795Z,10.00
2018-03-24T15:59:15.275Z,9.50
2018-03-24T16:01:42.776Z,9.80
2018-03-24T16:04:10.252Z,9.93
2018-03-24T16:06:37.717Z,9.57
2018-03-24T16:09:05.199Z,9.40
2018-03-24T16:11:32.663Z,9.37
2018-03-24T16:14:00.143Z,9.53
2018-03-24T16:16:27.607Z,9.73
2018-03-24T16:18:55.142Z,9.90
2018-03-24T16:21:22.621Z,9.10
2018-03-24T16:23:50.067Z,9.17
2018-03-24T16:26:17.526Z,8.93
2018-03-24T16:28:45.009Z,8.20
2018-03-24T16:31:12.471Z,9.37
2018-03-24T16:33:39.951Z,9.03
2018-03-24T16:36:07.404Z,9.70
2018-03-24T16:38:34.887Z,8.73
2018-03-24T16:41:02.347Z,8.87
2018-03-24T16:43:29.823Z,8.67
2018-03-24T16:45:57.294Z,8.33
2018-03-24T16:48:24.756Z,9.43
2018-03-24T16:50:52.234Z,8.90
2018-03-24T16:53:19.705Z,9.20
2018-03-24T16:55:47.170Z,8.80
2018-03-24T16:58:14.634Z,9.70
2018-03-24T17:00:42.119Z,10.47
2018-03-24T17:03:09.579Z,9.90
2018-03-24T17:05:37.064Z,9.40
2018-03-24T17:08:04.527Z,10.40
2018-03-24T17:10:32.019Z,9.93
2018-03-24T17:12:59.829Z,10.37
2018-03-24T17:15:27.343Z,10.33
2018-03-24T17:17:54.808Z,10.40
2018-03-24T17:20:22.288Z,9.50
2018-03-24T17:22:49.755Z,10.20
2018-03-24T17:25:17.245Z,11.17
2018-03-24T17:27:44.715Z,12.03
2018-03-24T17:30:12.198Z,12.07
2018-03-24T17:32:39.663Z,10.83
2018-03-24T17:35:07.145Z,11.00
2018-03-24T17:37:34.631Z,10.80
2018-03-24T17:40:02.128Z,11.07
2018-03-24T17:42:29.591Z,11.47
2018-03-24T17:44:57.881Z,11.07
2018-03-24T17:47:25.346Z,10.50
2018-03-24T17:49:52.819Z,11.07
2018-03-24T17:52:20.275Z,12.00
2018-03-24T17:54:47.753Z,12.97
2018-03-24T17:57:15.223Z,12.23
2018-03-24T17:59:42.761Z,12.07
2018-03-24T18:02:10.227Z,12.43
2018-03-24T18:04:37.715Z,11.83
2018-03-24T18:07:05.191Z,11.93
2018-03-24T18:09:32.701Z,12.13
2018-03-24T18:12:05.610Z,12.37
2018-03-24T18:14:33.099Z,11.67
2018-03-24T18:17:00.555Z,12.50
2018-03-24T18:19:28.019Z,12.23
2018-03-24T18:21:55.503Z,11.00
2018-03-24T18:24:22.980Z,11.10
2018-03-24T18:26:50.473Z,10.67
2018-03-24T18:29:17.936Z,9.83
2018-03-24T18:31:46.361Z,10.10
2018-03-24T18:34:13.819Z,9.67
2018-03-24T18:36:42.223Z,9.97
2018-03-24T18:39:09.679Z,9.97
2018-03-24T18:41:37.151Z,9.73
2018-03-24T18:44:04.631Z,11.37
2018-03-24T18:46:33.079Z,9.57
2018-03-24T18:49:00.551Z,10.40
2018-03-24T18:51:28.595Z,9.83
2018-03-24T18:53:56.054Z,9.47
2018-03-24T18:56:23.668Z,9.90
2018-03-24T18:58:51.131Z,9.37
2018-03-24T19:01:18.616Z,9.07
2018-03-24T19:03:46.080Z,9.77
2018-03-24T19:06:13.556Z,10.43
2018-03-24T19:08:46.351Z,10.57
2018-03-24T19:11:13.828Z,11.37
2018-03-24T19:13:41.295Z,11.03
2018-03-24T19:16:08.816Z,10.33
2018-03-24T19:18:36.279Z,11.50
2018-03-24T19:21:03.764Z,10.63
2018-03-24T19:23:31.219Z,11.47
2018-03-24T19:25:58.701Z,11.00
2018-03-24T19:28:26.179Z,11.87
2018-03-24T19:30:53.664Z,10.70
2018-03-24T19:33:21.124Z,11.23
2018-03-24T19:35:48.607Z,9.83
2018-03-24T19:38:16.092Z,10.33
2018-03-24T19:40:43.592Z,10.87
2018-03-24T19:43:11.053Z,10.37
2018-03-24T19:45:38.511Z,10.93
2018-03-24T19:48:06.048Z,11.07
2018-03-24T19:50:33.526Z,10.70
2018-03-24T19:53:01.002Z,10.87
2018-03-24T19:55:28.478Z,10.13
2018-03-24T19:57:55.981Z,11.33
2018-03-24T20:00:23.438Z,11.80
2018-03-24T20:02:50.921Z,11.17
2018-03-24T20:05:18.393Z,11.37
2018-03-24T20:07:45.899Z,11.10
2018-03-24T20:10:13.355Z,11.90
2018-03-24T20:12:44.704Z,10.70
2018-03-24T20:15:12.168Z,10.90
2018-03-24T20:17:39.655Z,11.23
2018-03-24T20:20:07.139Z,11.77
2018-03-24T20:22:34.619Z,11.77
2018-03-24T20:25:02.083Z,11.57
2018-03-24T20:27:30.397Z,12.00
2018-03-24T20:29:57.871Z,12.30
2018-03-24T20:32:25.352Z,11.47
2018-03-24T20:34:52.807Z,12.10
2018-03-24T20:37:20.291Z,12.23
2018-03-24T20:39:47.750Z,12.17
2018-03-24T20:42:15.232Z,12.73
2018-03-24T20:44:42.708Z,12.47
2018-03-24T20:47:14.219Z,12.03
2018-03-24T20:49:41.704Z,12.97
2018-03-24T20:52:09.195Z,12.30
2018-03-24T20:54:36.659Z,13.03
2018-03-24T20:57:04.143Z,12.80
2018-03-24T20:59:31.608Z,13.27
2018-03-24T21:01:59.091Z,12.90
2018-03-24T21:04:26.551Z,12.40
2018-03-24T21:06:54.040Z,12.50
2018-03-24T21:09:21.499Z,12.53
2018-03-24T21:11:48.979Z,13.07
2018-03-24T21:14:16.431Z,11.83
2018-03-24T21:16:43.888Z,12.17
2018-03-24T21:19:11.371Z,11.90
2018-03-24T21:21:38.839Z,12.30
2018-03-24T21:24:06.331Z,12.27
2018-03-24T21:26:33.785Z,15.43
2018-03-24T21:29:01.272Z,15.43
2018-03-24T21:31:28.755Z,15.47
2018-03-24T21:33:56.225Z,16.63
2018-03-24T21:36:23.687Z,15.37
2018-03-24T21:38:51.230Z,14.27
2018-03-24T21:41:18.655Z,14.43
2018-03-24T21:43:46.134Z,15.90
2018-03-24T21:46:13.591Z,15.00
2018-03-24T21:48:41.069Z,15.47
2018-03-24T21:51:08.545Z,14.50
2018-03-24T21:53:36.032Z,14.90
2018-03-24T21:56:03.499Z,14.40
2018-03-24T21:58:30.976Z,14.67
2018-03-24T22:00:58.815Z,15.20
2018-03-24T22:03:26.314Z,14.93
2018-03-24T22:05:53.779Z,15.77
2018-03-24T22:08:21.260Z,15.07
2018-03-24T22:10:48.724Z,13.93
2018-03-24T22:13:16.204Z,13.47
2018-03-24T22:15:43.658Z,14.43
2018-03-24T22:18:11.400Z,13.73
2018-03-24T22:20:38.861Z,15.30
2018-03-24T22:23:06.343Z,15.47
2018-03-24T22:25:33.803Z,14.57
2018-03-24T22:28:01.281Z,15.47
2018-03-24T22:30:28.741Z,14.37
2018-03-24T22:32:58.224Z,15.20
2018-03-24T22:35:25.679Z,15.33
2018-03-24T22:37:53.135Z,13.70
2018-03-24T22:40:20.616Z,13.33
2018-03-24T22:42:48.078Z,14.43
2018-03-24T22:45:15.604Z,13.77
2018-03-24T22:47:43.040Z,15.00
2018-03-24T22:50:10.519Z,13.93
2018-03-24T22:52:37.983Z,13.60
2018-03-24T22:55:05.465Z,13.50
2018-03-24T22:57:32.928Z,14.33
2018-03-24T23:00:00.411Z,14.23
2018-03-24T23:02:27.877Z,15.00
2018-03-24T23:04:55.361Z,14.43
2018-03-24T23:07:22.827Z,14.00
2018-03-24T23:09:51.270Z,14.33
2018-03-24T23:12:18.734Z,13.57
2018-03-24T23:14:46.219Z,14.80
2018-03-24T23:17:13.690Z,15.10
2018-03-24T23:19:41.167Z,15.27
2018-03-24T23:22:08.662Z,15.47
2018-03-24T23:24:36.127Z,15.63
2018-03-24T23:27:03.596Z,15.80
2018-03-24T23:29:31.075Z,15.17
2018-03-24T23:31:58.531Z,15.53
2018-03-24T23:34:26.101Z,16.20
2018-03-24T23:36:53.483Z,15.07
2018-03-24T23:39:20.966Z,15.77
2018-03-24T23:41:48.432Z,15.70
2018-03-24T23:44:15.917Z,15.77
2018-03-24T23:46:43.378Z,15.60
2018-03-24T23:49:10.860Z,15.33
2018-03-24T23:51:38.329Z,16.60
2018-03-24T23:54:05.807Z,15.93
2018-03-24T23:56:33.272Z,13.73
2018-03-24T23:59:00.754Z,13.60
